sensor_id;sensor_type;location;lat;lon;timestamp;P1;durP1;ratioP1;P2;durP2;ratioP2
37049;SDS011;22958;51.232;6.826;2023-05-17T00:01:57;16.83;;;4.10;;
37049;SDS011;22958;51.232;6.826;2023-05-17T00:04:23;16.53;;;4.17;;
37049;SDS011;22958;51.232;6.826;2023-05-17T00:06:48;19.47;;;4.70;;
37049;SDS011;22958;51.232;6.826;2023-05-17T00:09:14;15.50;;;4.60;;
37049;SDS011;22958;51.232;6.826;2023-05-17T00:11:39;14.23;;;4.00;;
37049;SDS011;22958;51.232;6.826;2023-05-17T00:14:05;13.07;;;3.63;;
37049;SDS011;22958;51.232;6.826;2023-05-17T00:16:30;15.53;;;4.30;;
37049;SDS011;22958;51.232;6.826;2023-05-17T00:18:56;9.57;;;4.10;;
37049;SDS011;22958;51.232;6.826;2023-05-17T00:21:21;14.83;;;5.47;;
37049;SDS011;22958;51.232;6.826;2023-05-17T00:23:47;14.77;;;4.33;;
37049;SDS011;22958;51.232;6.826;2023-05-17T00:26:12;15.43;;;4.23;;
37049;SDS011;22958;51.232;6.826;2023-05-17T00:28:38;11.90;;;4.57;;
37049;SDS011;22958;51.232;6.826;2023-05-17T00:31:03;15.40;;;4.43;;
37049;SDS011;22958;51.232;6.826;2023-05-17T00:33:29;13.57;;;4.73;;
37049;SDS011;22958;51.232;6.826;2023-05-17T00:35:54;14.00;;;4.47;;
37049;SDS011;22958;51.232;6.826;2023-05-17T00:38:20;12.07;;;4.10;;
37049;SDS011;22958;51.232;6.826;2023-05-17T00:40:46;17.87;;;4.57;;
37049;SDS011;22958;51.232;6.826;2023-05-17T00:43:11;15.50;;;4.43;;
37049;SDS011;22958;51.232;6.826;2023-05-17T00:45:36;17.90;;;4.33;;
37049;SDS011;22958;51.232;6.826;2023-05-17T00:48:02;15.23;;;4.40;;
37049;SDS011;22958;51.232;6.826;2023-05-17T00:50:28;13.10;;;4.10;;
37049;SDS011;22958;51.232;6.826;2023-05-17T00:52:54;14.93;;;4.03;;
37049;SDS011;22958;51.232;6.826;2023-05-17T00:55:20;13.27;;;4.60;;
37049;SDS011;22958;51.232;6.826;2023-05-17T00:57:45;20.77;;;6.27;;
37049;SDS011;22958;51.232;6.826;2023-05-17T01:00:11;17.43;;;4.70;;
37049;SDS011;22958;51.232;6.826;2023-05-17T01:02:37;14.10;;;4.57;;
37049;SDS011;22958;51.232;6.826;2023-05-17T01:05:03;21.70;;;4.97;;
37049;SDS011;22958;51.232;6.826;2023-05-17T01:07:29;14.82;;;4.32;;
37049;SDS011;22958;51.232;6.826;2023-05-17T01:09:54;17.47;;;4.50;;
37049;SDS011;22958;51.232;6.826;2023-05-17T01:13:07;14.40;;;3.90;;
37049;SDS011;22958;51.232;6.826;2023-05-17T01:15:13;13.82;;;4.65;;
37049;SDS011;22958;51.232;6.826;2023-05-17T01:17:49;11.57;;;3.83;;
37049;SDS011;22958;51.232;6.826;2023-05-17T01:20:37;11.75;;;4.50;;
37049;SDS011;22958;51.232;6.826;2023-05-17T01:23:22;14.48;;;5.18;;
37049;SDS011;22958;51.232;6.826;2023-05-17T01:26:06;17.48;;;5.00;;
37049;SDS011;22958;51.232;6.826;2023-05-17T01:28:39;18.73;;;4.75;;
37049;SDS011;22958;51.232;6.826;2023-05-17T01:31:08;16.30;;;5.10;;
37049;SDS011;22958;51.232;6.826;2023-05-17T01:33:35;20.63;;;4.70;;
37049;SDS011;22958;51.232;6.826;2023-05-17T01:36:01;24.88;;;5.22;;
37049;SDS011;22958;51.232;6.826;2023-05-17T01:38:26;16.43;;;4.50;;
37049;SDS011;22958;51.232;6.826;2023-05-17T01:40:57;19.33;;;5.07;;
37049;SDS011;22958;51.232;6.826;2023-05-17T01:43:45;18.70;;;4.80;;
37049;SDS011;22958;51.232;6.826;2023-05-17T01:46:32;22.58;;;4.93;;
37049;SDS011;22958;51.232;6.826;2023-05-17T01:49:22;18.67;;;5.30;;
37049;SDS011;22958;51.232;6.826;2023-05-17T01:54:42;20.77;;;5.60;;
37049;SDS011;22958;51.232;6.826;2023-05-17T01:57:15;20.15;;;5.28;;
37049;SDS011;22958;51.232;6.826;2023-05-17T01:59:48;31.17;;;7.85;;
37049;SDS011;22958;51.232;6.826;2023-05-17T02:02:16;29.13;;;6.30;;
37049;SDS011;22958;51.232;6.826;2023-05-17T02:04:41;19.73;;;6.07;;
37049;SDS011;22958;51.232;6.826;2023-05-17T02:07:07;14.10;;;5.90;;
37049;SDS011;22958;51.232;6.826;2023-05-17T02:09:32;29.53;;;6.83;;
37049;SDS011;22958;51.232;6.826;2023-05-17T02:11:58;20.83;;;7.17;;
37049;SDS011;22958;51.232;6.826;2023-05-17T02:14:23;23.47;;;6.80;;
37049;SDS011;22958;51.232;6.826;2023-05-17T02:16:49;20.80;;;5.90;;
37049;SDS011;22958;51.232;6.826;2023-05-17T02:19:14;28.60;;;7.40;;
37049;SDS011;22958;51.232;6.826;2023-05-17T02:21:40;20.07;;;6.77;;
37049;SDS011;22958;51.232;6.826;2023-05-17T02:24:05;28.10;;;6.97;;
37049;SDS011;22958;51.232;6.826;2023-05-17T02:26:31;31.97;;;7.37;;
37049;SDS011;22958;51.232;6.826;2023-05-17T02:28:57;18.93;;;7.03;;
37049;SDS011;22958;51.232;6.826;2023-05-17T02:31:22;33.40;;;8.13;;
37049;SDS011;22958;51.232;6.826;2023-05-17T02:33:51;27.77;;;7.28;;
37049;SDS011;22958;51.232;6.826;2023-05-17T02:36:19;37.83;;;7.65;;
37049;SDS011;22958;51.232;6.826;2023-05-17T02:38:45;28.87;;;8.03;;
37049;SDS011;22958;51.232;6.826;2023-05-17T02:41:10;27.33;;;7.77;;
37049;SDS011;22958;51.232;6.826;2023-05-17T02:43:36;25.27;;;8.73;;
37049;SDS011;22958;51.232;6.826;2023-05-17T02:46:02;22.70;;;8.00;;
37049;SDS011;22958;51.232;6.826;2023-05-17T02:48:27;23.83;;;7.47;;
37049;SDS011;22958;51.232;6.826;2023-05-17T02:50:53;41.33;;;8.83;;
37049;SDS011;22958;51.232;6.826;2023-05-17T02:53:18;32.43;;;8.10;;
37049;SDS011;22958;51.232;6.826;2023-05-17T02:55:44;30.70;;;8.63;;
37049;SDS011;22958;51.232;6.826;2023-05-17T02:58:09;34.00;;;8.47;;
37049;SDS011;22958;51.232;6.826;2023-05-17T03:00:35;30.40;;;8.67;;
37049;SDS011;22958;51.232;6.826;2023-05-17T03:03:00;38.83;;;9.07;;
37049;SDS011;22958;51.232;6.826;2023-05-17T03:05:26;32.03;;;8.57;;
37049;SDS011;22958;51.232;6.826;2023-05-17T03:07:51;38.37;;;9.30;;
37049;SDS011;22958;51.232;6.826;2023-05-17T03:10:17;23.80;;;8.20;;
37049;SDS011;22958;51.232;6.826;2023-05-17T03:12:43;41.63;;;8.50;;
37049;SDS011;22958;51.232;6.826;2023-05-17T03:15:08;38.17;;;10.47;;
37049;SDS011;22958;51.232;6.826;2023-05-17T03:17:34;33.30;;;9.03;;
37049;SDS011;22958;51.232;6.826;2023-05-17T03:20:00;30.10;;;9.35;;
37049;SDS011;22958;51.232;6.826;2023-05-17T03:22:26;28.13;;;7.57;;
37049;SDS011;22958;51.232;6.826;2023-05-17T03:24:51;36.30;;;9.00;;
37049;SDS011;22958;51.232;6.826;2023-05-17T03:27:17;32.33;;;8.97;;
37049;SDS011;22958;51.232;6.826;2023-05-17T03:29:42;37.27;;;9.07;;
37049;SDS011;22958;51.232;6.826;2023-05-17T03:32:08;41.53;;;9.97;;
37049;SDS011;22958;51.232;6.826;2023-05-17T03:34:33;35.63;;;8.83;;
37049;SDS011;22958;51.232;6.826;2023-05-17T03:36:59;32.60;;;10.63;;
37049;SDS011;22958;51.232;6.826;2023-05-17T03:39:25;36.33;;;9.13;;
37049;SDS011;22958;51.232;6.826;2023-05-17T03:41:50;27.03;;;10.33;;
37049;SDS011;22958;51.232;6.826;2023-05-17T03:44:16;37.30;;;11.10;;
37049;SDS011;22958;51.232;6.826;2023-05-17T03:46:41;41.70;;;11.63;;
37049;SDS011;22958;51.232;6.826;2023-05-17T03:49:07;36.07;;;11.27;;
37049;SDS011;22958;51.232;6.826;2023-05-17T03:51:32;42.20;;;13.33;;
37049;SDS011;22958;51.232;6.826;2023-05-17T03:53:58;36.90;;;11.13;;
37049;SDS011;22958;51.232;6.826;2023-05-17T03:56:25;28.60;;;10.77;;
37049;SDS011;22958;51.232;6.826;2023-05-17T03:58:51;30.87;;;11.30;;
37049;SDS011;22958;51.232;6.826;2023-05-17T04:01:16;35.63;;;11.53;;
37049;SDS011;22958;51.232;6.826;2023-05-17T04:03:44;27.90;;;11.15;;
37049;SDS011;22958;51.232;6.826;2023-05-17T04:06:10;40.40;;;11.75;;
37049;SDS011;22958;51.232;6.826;2023-05-17T04:11:02;37.30;;;11.20;;
37049;SDS011;22958;51.232;6.826;2023-05-17T04:13:34;55.15;;;13.35;;
37049;SDS011;22958;51.232;6.826;2023-05-17T04:16:01;41.85;;;13.00;;
37049;SDS011;22958;51.232;6.826;2023-05-17T04:18:27;48.57;;;12.47;;
37049;SDS011;22958;51.232;6.826;2023-05-17T04:20:53;43.83;;;12.47;;
37049;SDS011;22958;51.232;6.826;2023-05-17T04:23:19;44.33;;;13.38;;
37049;SDS011;22958;51.232;6.826;2023-05-17T04:25:45;45.43;;;12.20;;
37049;SDS011;22958;51.232;6.826;2023-05-17T04:28:11;37.27;;;12.23;;
37049;SDS011;22958;51.232;6.826;2023-05-17T04:30:40;36.07;;;12.87;;
37049;SDS011;22958;51.232;6.826;2023-05-17T04:33:10;48.70;;;13.20;;
37049;SDS011;22958;51.232;6.826;2023-05-17T04:35:37;35.80;;;12.63;;
37049;SDS011;22958;51.232;6.826;2023-05-17T04:38:03;41.55;;;13.23;;
37049;SDS011;22958;51.232;6.826;2023-05-17T04:40:28;43.60;;;14.47;;
37049;SDS011;22958;51.232;6.826;2023-05-17T04:42:54;45.30;;;13.73;;
37049;SDS011;22958;51.232;6.826;2023-05-17T04:45:19;36.23;;;13.70;;
37049;SDS011;22958;51.232;6.826;2023-05-17T04:47:45;31.93;;;11.17;;
37049;SDS011;22958;51.232;6.826;2023-05-17T04:50:11;48.70;;;13.55;;
37049;SDS011;22958;51.232;6.826;2023-05-17T04:52:36;48.17;;;12.47;;
37049;SDS011;22958;51.232;6.826;2023-05-17T04:55:02;42.17;;;15.53;;
37049;SDS011;22958;51.232;6.826;2023-05-17T04:57:29;38.95;;;13.60;;
37049;SDS011;22958;51.232;6.826;2023-05-17T04:59:54;38.33;;;12.97;;
37049;SDS011;22958;51.232;6.826;2023-05-17T05:02:20;39.27;;;14.27;;
37049;SDS011;22958;51.232;6.826;2023-05-17T05:04:45;44.43;;;13.67;;
37049;SDS011;22958;51.232;6.826;2023-05-17T05:07:11;46.50;;;14.77;;
37049;SDS011;22958;51.232;6.826;2023-05-17T05:09:36;46.47;;;14.67;;
37049;SDS011;22958;51.232;6.826;2023-05-17T05:12:02;46.47;;;15.03;;
37049;SDS011;22958;51.232;6.826;2023-05-17T05:14:27;43.77;;;16.63;;
37049;SDS011;22958;51.232;6.826;2023-05-17T05:16:53;45.27;;;15.87;;
37049;SDS011;22958;51.232;6.826;2023-05-17T05:19:19;59.42;;;17.30;;
37049;SDS011;22958;51.232;6.826;2023-05-17T05:21:45;46.20;;;16.20;;
37049;SDS011;22958;51.232;6.826;2023-05-17T05:24:10;57.00;;;18.43;;
37049;SDS011;22958;51.232;6.826;2023-05-17T05:26:36;57.60;;;16.57;;
37049;SDS011;22958;51.232;6.826;2023-05-17T05:29:02;53.67;;;17.40;;
37049;SDS011;22958;51.232;6.826;2023-05-17T05:31:27;43.27;;;17.57;;
37049;SDS011;22958;51.232;6.826;2023-05-17T05:33:54;42.75;;;17.02;;
37049;SDS011;22958;51.232;6.826;2023-05-17T05:36:19;57.23;;;19.77;;
37049;SDS011;22958;51.232;6.826;2023-05-17T05:38:45;48.67;;;20.67;;
37049;SDS011;22958;51.232;6.826;2023-05-17T05:41:10;53.70;;;19.00;;
37049;SDS011;22958;51.232;6.826;2023-05-17T05:43:36;59.93;;;19.37;;
37049;SDS011;22958;51.232;6.826;2023-05-17T05:46:01;59.23;;;22.43;;
37049;SDS011;22958;51.232;6.826;2023-05-17T05:48:27;52.07;;;21.70;;
37049;SDS011;22958;51.232;6.826;2023-05-17T05:50:53;60.47;;;22.83;;
37049;SDS011;22958;51.232;6.826;2023-05-17T05:53:18;59.47;;;22.40;;
37049;SDS011;22958;51.232;6.826;2023-05-17T05:55:44;57.37;;;22.33;;
37049;SDS011;22958;51.232;6.826;2023-05-17T05:58:09;55.83;;;20.83;;
37049;SDS011;22958;51.232;6.826;2023-05-17T06:00:35;62.17;;;21.43;;
37049;SDS011;22958;51.232;6.826;2023-05-17T06:03:01;50.60;;;20.95;;
37049;SDS011;22958;51.232;6.826;2023-05-17T06:05:26;67.60;;;20.90;;
37049;SDS011;22958;51.232;6.826;2023-05-17T06:07:52;46.80;;;19.17;;
37049;SDS011;22958;51.232;6.826;2023-05-17T06:10:17;47.13;;;18.07;;
37049;SDS011;22958;51.232;6.826;2023-05-17T06:12:43;54.77;;;17.17;;
37049;SDS011;22958;51.232;6.826;2023-05-17T06:15:08;45.47;;;18.17;;
37049;SDS011;22958;51.232;6.826;2023-05-17T06:17:35;41.60;;;14.07;;
37049;SDS011;22958;51.232;6.826;2023-05-17T06:20:00;42.97;;;13.27;;
37049;SDS011;22958;51.232;6.826;2023-05-17T06:22:26;40.10;;;12.23;;
37049;SDS011;22958;51.232;6.826;2023-05-17T06:24:51;33.57;;;9.00;;
37049;SDS011;22958;51.232;6.826;2023-05-17T06:27:17;29.30;;;9.23;;
37049;SDS011;22958;51.232;6.826;2023-05-17T06:29:43;31.13;;;9.13;;
37049;SDS011;22958;51.232;6.826;2023-05-17T06:32:08;34.67;;;7.73;;
37049;SDS011;22958;51.232;6.826;2023-05-17T06:34:34;28.70;;;7.37;;
37049;SDS011;22958;51.232;6.826;2023-05-17T06:36:59;27.87;;;7.37;;
37049;SDS011;22958;51.232;6.826;2023-05-17T06:39:25;25.27;;;6.13;;
37049;SDS011;22958;51.232;6.826;2023-05-17T06:41:50;29.10;;;6.90;;
37049;SDS011;22958;51.232;6.826;2023-05-17T06:44:16;28.77;;;6.33;;
37049;SDS011;22958;51.232;6.826;2023-05-17T06:46:41;24.07;;;4.33;;
37049;SDS011;22958;51.232;6.826;2023-05-17T06:49:07;19.67;;;4.37;;
37049;SDS011;22958;51.232;6.826;2023-05-17T06:51:32;24.67;;;4.20;;
37049;SDS011;22958;51.232;6.826;2023-05-17T06:53:58;23.40;;;4.53;;
37049;SDS011;22958;51.232;6.826;2023-05-17T06:56:23;28.80;;;4.50;;
37049;SDS011;22958;51.232;6.826;2023-05-17T06:58:49;17.77;;;3.03;;
37049;SDS011;22958;51.232;6.826;2023-05-17T07:01:14;26.37;;;3.67;;
37049;SDS011;22958;51.232;6.826;2023-05-17T07:03:40;18.93;;;4.10;;
37049;SDS011;22958;51.232;6.826;2023-05-17T07:06:06;26.30;;;4.23;;
37049;SDS011;22958;51.232;6.826;2023-05-17T07:08:31;20.80;;;3.33;;
37049;SDS011;22958;51.232;6.826;2023-05-17T07:10:57;23.73;;;3.47;;
37049;SDS011;22958;51.232;6.826;2023-05-17T07:13:22;26.57;;;3.33;;
37049;SDS011;22958;51.232;6.826;2023-05-17T07:15:48;14.67;;;3.03;;
37049;SDS011;22958;51.232;6.826;2023-05-17T07:18:13;20.53;;;3.13;;
37049;SDS011;22958;51.232;6.826;2023-05-17T07:20:40;15.43;;;2.55;;
37049;SDS011;22958;51.232;6.826;2023-05-17T07:23:05;13.07;;;2.97;;
37049;SDS011;22958;51.232;6.826;2023-05-17T07:25:31;19.87;;;3.27;;
37049;SDS011;22958;51.232;6.826;2023-05-17T07:27:57;21.97;;;2.40;;
37049;SDS011;22958;51.232;6.826;2023-05-17T07:30:22;19.70;;;3.27;;
37049;SDS011;22958;51.232;6.826;2023-05-17T07:32:48;10.53;;;2.27;;
37049;SDS011;22958;51.232;6.826;2023-05-17T07:35:13;23.70;;;2.80;;
37049;SDS011;22958;51.232;6.826;2023-05-17T07:37:39;29.20;;;3.57;;
37049;SDS011;22958;51.232;6.826;2023-05-17T07:40:05;17.07;;;2.80;;
37049;SDS011;22958;51.232;6.826;2023-05-17T07:42:31;23.02;;;3.63;;
37049;SDS011;22958;51.232;6.826;2023-05-17T07:44:57;15.32;;;3.25;;
37049;SDS011;22958;51.232;6.826;2023-05-17T07:47:22;23.67;;;2.80;;
37049;SDS011;22958;51.232;6.826;2023-05-17T07:49:48;16.83;;;2.60;;
37049;SDS011;22958;51.232;6.826;2023-05-17T07:52:13;27.40;;;3.60;;
37049;SDS011;22958;51.232;6.826;2023-05-17T07:54:39;20.33;;;3.00;;
37049;SDS011;22958;51.232;6.826;2023-05-17T07:57:05;17.27;;;2.90;;
37049;SDS011;22958;51.232;6.826;2023-05-17T07:59:30;18.37;;;2.97;;
37049;SDS011;22958;51.232;6.826;2023-05-17T08:01:56;12.63;;;2.50;;
37049;SDS011;22958;51.232;6.826;2023-05-17T08:04:21;15.70;;;3.20;;
37049;SDS011;22958;51.232;6.826;2023-05-17T08:06:48;25.63;;;3.40;;
37049;SDS011;22958;51.232;6.826;2023-05-17T08:09:14;16.33;;;4.03;;
37049;SDS011;22958;51.232;6.826;2023-05-17T08:11:40;18.80;;;3.78;;
37049;SDS011;22958;51.232;6.826;2023-05-17T08:14:10;21.10;;;3.58;;
37049;SDS011;22958;51.232;6.826;2023-05-17T08:16:40;26.88;;;3.67;;
37049;SDS011;22958;51.232;6.826;2023-05-17T08:19:06;24.98;;;2.90;;
37049;SDS011;22958;51.232;6.826;2023-05-17T08:21:31;18.30;;;2.73;;
37049;SDS011;22958;51.232;6.826;2023-05-17T08:23:57;12.40;;;2.40;;
37049;SDS011;22958;51.232;6.826;2023-05-17T08:26:22;20.27;;;3.87;;
37049;SDS011;22958;51.232;6.826;2023-05-17T08:28:48;21.67;;;3.57;;
37049;SDS011;22958;51.232;6.826;2023-05-17T08:31:13;13.30;;;2.57;;
37049;SDS011;22958;51.232;6.826;2023-05-17T08:33:39;20.27;;;2.70;;
37049;SDS011;22958;51.232;6.826;2023-05-17T08:36:04;18.30;;;2.87;;
37049;SDS011;22958;51.232;6.826;2023-05-17T08:38:32;14.38;;;3.33;;
37049;SDS011;22958;51.232;6.826;2023-05-17T08:40:58;15.23;;;2.45;;
37049;SDS011;22958;51.232;6.826;2023-05-17T08:43:24;10.63;;;2.50;;
37049;SDS011;22958;51.232;6.826;2023-05-17T08:45:50;15.07;;;2.57;;
37049;SDS011;22958;51.232;6.826;2023-05-17T08:50:43;20.27;;;2.75;;
37049;SDS011;22958;51.232;6.826;2023-05-17T08:53:11;31.85;;;4.00;;
37049;SDS011;22958;51.232;6.826;2023-05-17T08:58:05;16.15;;;3.03;;
37049;SDS011;22958;51.232;6.826;2023-05-17T09:00:31;21.23;;;2.77;;
37049;SDS011;22958;51.232;6.826;2023-05-17T09:02:58;21.55;;;2.88;;
37049;SDS011;22958;51.232;6.826;2023-05-17T09:05:24;14.88;;;2.58;;
37049;SDS011;22958;51.232;6.826;2023-05-17T09:07:50;18.13;;;2.65;;
37049;SDS011;22958;51.232;6.826;2023-05-17T09:10:17;24.08;;;3.60;;
37049;SDS011;22958;51.232;6.826;2023-05-17T09:12:43;17.87;;;4.33;;
37049;SDS011;22958;51.232;6.826;2023-05-17T09:15:16;22.50;;;4.30;;
37049;SDS011;22958;51.232;6.826;2023-05-17T09:17:49;23.77;;;3.85;;
37049;SDS011;22958;51.232;6.826;2023-05-17T09:20:25;17.15;;;3.20;;
37049;SDS011;22958;51.232;6.826;2023-05-17T09:23:00;22.58;;;3.53;;
37049;SDS011;22958;51.232;6.826;2023-05-17T09:25:27;21.27;;;3.75;;
37049;SDS011;22958;51.232;6.826;2023-05-17T09:30:25;25.95;;;3.80;;
37049;SDS011;22958;51.232;6.826;2023-05-17T09:32:51;23.45;;;4.15;;
37049;SDS011;22958;51.232;6.826;2023-05-17T09:35:17;14.20;;;3.03;;
37049;SDS011;22958;51.232;6.826;2023-05-17T09:37:43;17.60;;;3.30;;
37049;SDS011;22958;51.232;6.826;2023-05-17T09:40:20;17.48;;;4.10;;
37049;SDS011;22958;51.232;6.826;2023-05-17T09:42:47;17.80;;;3.58;;
37049;SDS011;22958;51.232;6.826;2023-05-17T09:45:13;20.70;;;3.93;;
37049;SDS011;22958;51.232;6.826;2023-05-17T09:47:46;26.98;;;4.50;;
37049;SDS011;22958;51.232;6.826;2023-05-17T09:50:14;24.77;;;4.97;;
37049;SDS011;22958;51.232;6.826;2023-05-17T09:52:45;26.77;;;4.43;;
37049;SDS011;22958;51.232;6.826;2023-05-17T09:55:11;27.07;;;4.67;;
37049;SDS011;22958;51.232;6.826;2023-05-17T09:57:37;26.47;;;4.00;;
37049;SDS011;22958;51.232;6.826;2023-05-17T10:00:04;30.17;;;3.83;;
37049;SDS011;22958;51.232;6.826;2023-05-17T10:02:35;17.42;;;3.13;;
37049;SDS011;22958;51.232;6.826;2023-05-17T10:05:02;26.27;;;4.30;;
37049;SDS011;22958;51.232;6.826;2023-05-17T10:07:29;19.65;;;4.13;;
37049;SDS011;22958;51.232;6.826;2023-05-17T10:09:56;14.82;;;3.63;;
37049;SDS011;22958;51.232;6.826;2023-05-17T10:12:22;24.73;;;4.18;;
37049;SDS011;22958;51.232;6.826;2023-05-17T10:14:51;21.20;;;3.80;;
37049;SDS011;22958;51.232;6.826;2023-05-17T10:17:20;20.63;;;3.47;;
37049;SDS011;22958;51.232;6.826;2023-05-17T10:19:46;17.42;;;3.72;;
37049;SDS011;22958;51.232;6.826;2023-05-17T10:22:12;17.63;;;3.38;;
37049;SDS011;22958;51.232;6.826;2023-05-17T10:24:37;15.87;;;3.40;;
37049;SDS011;22958;51.232;6.826;2023-05-17T10:29:32;14.50;;;2.97;;
37049;SDS011;22958;51.232;6.826;2023-05-17T10:32:03;26.48;;;3.47;;
37049;SDS011;22958;51.232;6.826;2023-05-17T10:34:32;13.48;;;2.90;;
37049;SDS011;22958;51.232;6.826;2023-05-17T10:36:59;17.50;;;3.85;;
37049;SDS011;22958;51.232;6.826;2023-05-17T10:39:26;10.57;;;2.97;;
37049;SDS011;22958;51.232;6.826;2023-05-17T10:41:53;16.63;;;2.90;;
37049;SDS011;22958;51.232;6.826;2023-05-17T10:44:21;16.40;;;3.15;;
37049;SDS011;22958;51.232;6.826;2023-05-17T10:46:53;15.73;;;2.70;;
37049;SDS011;22958;51.232;6.826;2023-05-17T10:49:23;12.00;;;2.42;;
37049;SDS011;22958;51.232;6.826;2023-05-17T10:51:50;16.75;;;3.35;;
37049;SDS011;22958;51.232;6.826;2023-05-17T10:54:16;18.70;;;3.13;;
37049;SDS011;22958;51.232;6.826;2023-05-17T10:56:49;15.83;;;2.90;;
37049;SDS011;22958;51.232;6.826;2023-05-17T10:59:20;17.33;;;3.35;;
37049;SDS011;22958;51.232;6.826;2023-05-17T11:01:53;16.42;;;3.30;;
37049;SDS011;22958;51.232;6.826;2023-05-17T11:04:23;17.63;;;3.35;;
37049;SDS011;22958;51.232;6.826;2023-05-17T11:06:54;15.23;;;3.35;;
37049;SDS011;22958;51.232;6.826;2023-05-17T11:10:01;29.80;;;3.38;;
37049;SDS011;22958;51.232;6.826;2023-05-17T11:12:35;13.82;;;2.65;;
37049;SDS011;22958;51.232;6.826;2023-05-17T11:15:17;17.23;;;3.40;;
37049;SDS011;22958;51.232;6.826;2023-05-17T11:17:49;15.27;;;3.20;;
37049;SDS011;22958;51.232;6.826;2023-05-17T11:22:49;11.43;;;3.15;;
37049;SDS011;22958;51.232;6.826;2023-05-17T11:25:20;15.73;;;2.47;;
37049;SDS011;22958;51.232;6.826;2023-05-17T11:27:48;17.83;;;2.28;;
37049;SDS011;22958;51.232;6.826;2023-05-17T11:30:28;11.88;;;2.50;;
37049;SDS011;22958;51.232;6.826;2023-05-17T11:35:31;10.07;;;2.58;;
37049;SDS011;22958;51.232;6.826;2023-05-17T11:38:17;10.13;;;2.25;;
37049;SDS011;22958;51.232;6.826;2023-05-17T11:40:43;17.73;;;3.30;;
37049;SDS011;22958;51.232;6.826;2023-05-17T11:45:43;10.68;;;2.70;;
37049;SDS011;22958;51.232;6.826;2023-05-17T11:48:11;13.25;;;2.83;;
37049;SDS011;22958;51.232;6.826;2023-05-17T11:50:38;8.82;;;2.38;;
37049;SDS011;22958;51.232;6.826;2023-05-17T11:53:05;10.02;;;2.65;;
37049;SDS011;22958;51.232;6.826;2023-05-17T11:55:31;11.38;;;2.08;;
37049;SDS011;22958;51.232;6.826;2023-05-17T11:58:02;14.02;;;2.70;;
37049;SDS011;22958;51.232;6.826;2023-05-17T12:00:28;12.43;;;2.67;;
37049;SDS011;22958;51.232;6.826;2023-05-17T12:02:54;11.63;;;2.83;;
37049;SDS011;22958;51.232;6.826;2023-05-17T12:05:19;11.23;;;3.27;;
37049;SDS011;22958;51.232;6.826;2023-05-17T12:07:46;11.57;;;2.80;;
37049;SDS011;22958;51.232;6.826;2023-05-17T12:10:13;10.05;;;2.80;;
37049;SDS011;22958;51.232;6.826;2023-05-17T12:12:39;12.37;;;2.53;;
37049;SDS011;22958;51.232;6.826;2023-05-17T12:15:06;20.65;;;2.70;;
37049;SDS011;22958;51.232;6.826;2023-05-17T12:17:34;13.35;;;2.47;;
37049;SDS011;22958;51.232;6.826;2023-05-17T12:20:07;10.20;;;2.67;;
37049;SDS011;22958;51.232;6.826;2023-05-17T12:22:33;16.25;;;3.40;;
37049;SDS011;22958;51.232;6.826;2023-05-17T12:24:58;9.80;;;3.10;;
37049;SDS011;22958;51.232;6.826;2023-05-17T12:27:24;9.20;;;2.80;;
37049;SDS011;22958;51.232;6.826;2023-05-17T12:29:55;21.05;;;2.88;;
37049;SDS011;22958;51.232;6.826;2023-05-17T12:32:20;22.23;;;3.63;;
37049;SDS011;22958;51.232;6.826;2023-05-17T12:34:46;17.40;;;3.30;;
37049;SDS011;22958;51.232;6.826;2023-05-17T12:37:13;13.75;;;3.28;;
37049;SDS011;22958;51.232;6.826;2023-05-17T12:39:39;15.48;;;2.53;;
37049;SDS011;22958;51.232;6.826;2023-05-17T12:42:05;11.83;;;3.03;;
37049;SDS011;22958;51.232;6.826;2023-05-17T12:44:31;13.68;;;3.78;;
37049;SDS011;22958;51.232;6.826;2023-05-17T12:46:57;11.98;;;2.97;;
37049;SDS011;22958;51.232;6.826;2023-05-17T12:49:26;8.82;;;2.70;;
37049;SDS011;22958;51.232;6.826;2023-05-17T12:51:52;16.33;;;3.20;;
37049;SDS011;22958;51.232;6.826;2023-05-17T12:54:24;16.10;;;3.40;;
37049;SDS011;22958;51.232;6.826;2023-05-17T12:56:52;14.27;;;3.33;;
37049;SDS011;22958;51.232;6.826;2023-05-17T12:59:18;13.10;;;2.60;;
37049;SDS011;22958;51.232;6.826;2023-05-17T13:01:55;14.88;;;3.10;;
37049;SDS011;22958;51.232;6.826;2023-05-17T13:04:28;16.50;;;2.97;;
37049;SDS011;22958;51.232;6.826;2023-05-17T13:07:01;9.85;;;2.08;;
37049;SDS011;22958;51.232;6.826;2023-05-17T13:09:29;6.70;;;1.85;;
37049;SDS011;22958;51.232;6.826;2023-05-17T13:11:59;14.95;;;3.00;;
37049;SDS011;22958;51.232;6.826;2023-05-17T13:14:34;12.23;;;3.33;;
37049;SDS011;22958;51.232;6.826;2023-05-17T13:17:05;12.75;;;3.00;;
37049;SDS011;22958;51.232;6.826;2023-05-17T13:19:32;16.75;;;2.97;;
37049;SDS011;22958;51.232;6.826;2023-05-17T13:21:59;12.20;;;2.95;;
37049;SDS011;22958;51.232;6.826;2023-05-17T13:24:25;14.93;;;2.28;;
37049;SDS011;22958;51.232;6.826;2023-05-17T13:26:52;15.02;;;2.58;;
37049;SDS011;22958;51.232;6.826;2023-05-17T13:29:17;13.02;;;2.97;;
37049;SDS011;22958;51.232;6.826;2023-05-17T13:31:43;14.33;;;3.13;;
37049;SDS011;22958;51.232;6.826;2023-05-17T13:34:09;9.83;;;3.03;;
37049;SDS011;22958;51.232;6.826;2023-05-17T13:36:34;18.50;;;3.20;;
37049;SDS011;22958;51.232;6.826;2023-05-17T13:39:00;10.23;;;2.73;;
37049;SDS011;22958;51.232;6.826;2023-05-17T13:41:26;10.90;;;2.38;;
37049;SDS011;22958;51.232;6.826;2023-05-17T13:43:51;13.15;;;2.53;;
37049;SDS011;22958;51.232;6.826;2023-05-17T13:46:17;13.47;;;2.47;;
37049;SDS011;22958;51.232;6.826;2023-05-17T13:48:43;12.50;;;2.93;;
37049;SDS011;22958;51.232;6.826;2023-05-17T13:51:08;12.43;;;3.17;;
37049;SDS011;22958;51.232;6.826;2023-05-17T13:53:34;10.50;;;2.77;;
37049;SDS011;22958;51.232;6.826;2023-05-17T13:55:59;9.20;;;2.20;;
37049;SDS011;22958;51.232;6.826;2023-05-17T13:58:24;8.87;;;2.00;;
37049;SDS011;22958;51.232;6.826;2023-05-17T14:00:50;11.83;;;2.87;;
37049;SDS011;22958;51.232;6.826;2023-05-17T14:03:16;9.10;;;2.35;;
37049;SDS011;22958;51.232;6.826;2023-05-17T14:05:41;14.03;;;2.90;;
37049;SDS011;22958;51.232;6.826;2023-05-17T14:08:07;13.93;;;2.67;;
37049;SDS011;22958;51.232;6.826;2023-05-17T14:10:33;15.03;;;2.83;;
37049;SDS011;22958;51.232;6.826;2023-05-17T14:12:59;15.80;;;2.55;;
37049;SDS011;22958;51.232;6.826;2023-05-17T14:15:24;11.10;;;2.60;;
37049;SDS011;22958;51.232;6.826;2023-05-17T14:17:51;8.48;;;2.58;;
37049;SDS011;22958;51.232;6.826;2023-05-17T14:20:17;12.77;;;2.73;;
37049;SDS011;22958;51.232;6.826;2023-05-17T14:22:43;17.52;;;3.05;;
37049;SDS011;22958;51.232;6.826;2023-05-17T14:25:08;14.20;;;2.97;;
37049;SDS011;22958;51.232;6.826;2023-05-17T14:27:35;7.60;;;2.45;;
37049;SDS011;22958;51.232;6.826;2023-05-17T14:30:01;9.98;;;2.35;;
37049;SDS011;22958;51.232;6.826;2023-05-17T14:32:28;14.15;;;3.03;;
37049;SDS011;22958;51.232;6.826;2023-05-17T14:34:53;9.93;;;2.10;;
37049;SDS011;22958;51.232;6.826;2023-05-17T14:37:19;20.47;;;3.00;;
37049;SDS011;22958;51.232;6.826;2023-05-17T14:39:46;9.93;;;2.30;;
37049;SDS011;22958;51.232;6.826;2023-05-17T14:42:12;11.65;;;2.90;;
37049;SDS011;22958;51.232;6.826;2023-05-17T14:44:37;11.13;;;2.23;;
37049;SDS011;22958;51.232;6.826;2023-05-17T14:47:05;7.35;;;2.10;;
37049;SDS011;22958;51.232;6.826;2023-05-17T14:49:31;10.10;;;2.30;;
37049;SDS011;22958;51.232;6.826;2023-05-17T14:51:56;11.63;;;2.47;;
37049;SDS011;22958;51.232;6.826;2023-05-17T14:54:22;9.50;;;2.33;;
37049;SDS011;22958;51.232;6.826;2023-05-17T14:56:49;12.13;;;2.30;;